Ithaca Tompkins Regional Airport
KITH : now visible

Airfield :











YOU CAN JOIN US ON...

 
LOGIN :

Register | Disclaimer

   EN    FR    IT 

 









Legend :    VFR   Marginal VFR   IFR   Intensive IFR   Very Intensive IFR
Visi :
Ceiling :
>= 8 km
>= 3000ft
5 to 8 km
1000 to 3000 ft
1500m to 5 km
500 to 1000 ft
800 to 1500m
200 to 500 ft
< 800m
< 200 ft
Symbols :   Thunderstorms  Fog  Heavy snow  Heavy precipitations  Wind > 20 kt






- Airport Elevation : 1099 ft
- IATA code : ITH


KITH - Ithaca Tompkins Regional

CURRENT METAR :
  • 181056Z AUTO 12005KT 10SM OVC100 M12/M14 A3047 RMK AO2 SLP342 T11171139

EXPIRED METARs :
  • 180956Z AUTO 00000KT 10SM OVC110 M12/M14 A3053 RMK AO2 SLP363 T11221144
  • 180856Z AUTO 10005KT 10SM BKN110 M13/M14 A3055 RMK AO2 SLP370 T11281144 58026

TAF KITH
Valid from the 18 at 09:00 until the 19 at 06:00 UTC


180842Z 1809/1906 14006KT P6SM OVC190
FM181700 15015G25KT 1 1/2SM -SN BLSN OVC025
FM190100 18016KT 5SM -SHSN BLSN OVC015 WS020/20045KT
FM190500 22010KT 3SM -SHSNRA OVC015



MET'MAP, your aeronautical weather chart ! - Copyright ORBIFLY December 2007 - Disclaimer

ORBIFLY MET'MAP TEAM :

Programming & Development : Alexandra Zaïnal
Concept & original design : Baudouin d'Aumeries
Assistance for programming : Marc-Olivier Méhu
Technical & hardware support : Manuel Goepfert

Contact : metmap@orbifly.com




SOURCES & CREDITS :

   NOAA       Earth
Advisory